Borja — ICEC — position and weather

sailwx.info

Track history (hours):
 
Tides and Currents Weather Stations Pressure Air Temp Water Temp Dewpoint Dewpoint Depression Visibility Wind Speed Wind Dir Waves Ship Positions

Borja

Last reported at 2014-Oct-31 15:33 UTC. Time now 2014-Oct-31 15:53 UTC.
Position N 36°03' W 005°24'.

Length 186 m; draft 5.8 m.

Type: Ship. MMSI: 247196400.

Date/timePositionNaut miles runAvg speedWind from/ knotsBaromVisibWave heightAir tempDewpointWater temp
2014-Oct-31 15:33N 36°03' W 005°24'1 0.1
2014-Oct-31 11:33N 36°03' W 005°24'5 5.0
2014-Oct-31 10:33N 36°08' W 005°26'0 0.0
2014-Oct-31 09:33N 36°08' W 005°26'8 8.3
2014-Oct-31 08:34N 35°60' W 005°25'5 1.6
2014-Oct-31 05:34N 35°57' W 005°30'1211.7
2014-Oct-31 04:33N 36°08' W 005°26'0 0.0
2014-Oct-31 03:24N 36°08' W 005°26'0 0.0
2014-Oct-31 01:24N 36°08' W 005°26'0 0.0
2014-Oct-31 00:30N 36°08' W 005°26'2 2.2
2014-Oct-30 23:33N 36°08' W 005°24'13 3.9
2014-Oct-30 20:06N 35°57' W 005°32'917.1
2014-Oct-30 19:33N 36°03' W 005°24'5 4.8
2014-Oct-30 18:32N 36°08' W 005°26'0 0.0
2014-Oct-30 17:26N 36°08' W 005°26'1 1.0
2014-Oct-30 16:33N 36°09' W 005°26'1313.2
2014-Oct-30 15:33N 35°56' W 005°29'0 0.1
2014-Oct-30 12:25N 35°56' W 005°29'1214.0
2014-Oct-30 11:33N 36°08' W 005°26'0 0.3
2014-Oct-30 10:33N 36°08' W 005°26'0 0.2
2014-Oct-30 09:29N 36°08' W 005°26'1011.0
2014-Oct-30 08:33N 35°58' W 005°28'3 0.9
2014-Oct-30 05:32N 36°00' W 005°26'8 4.0
2014-Oct-30 03:32N 36°08' W 005°26'0 0.0
2014-Oct-30 02:14N 36°08' W 005°26'0 0.0
2014-Oct-30 01:32N 36°08' W 005°26'0 0.2
2014-Oct-30 00:33N 36°08' W 005°26'3 2.9
2014-Oct-29 23:33N 36°06' W 005°23'12 3.4
2014-Oct-29 20:12N 35°56' W 005°30'1217.9
2014-Oct-29 19:33N 36°07' W 005°24'2 1.8
2014-Oct-29 18:25N 36°08' W 005°26'0 0.1
2014-Oct-29 17:30N 36°08' W 005°26'6 6.3
2014-Oct-29 16:33N 36°02' W 005°23'9 2.8
2014-Oct-29 13:32N 35°56' W 005°31'1212.4
2014-Oct-29 12:33N 36°08' W 005°26'0 0.1
2014-Oct-29 11:33N 36°08' W 005°26'0 0.2
2014-Oct-29 10:30N 36°08' W 005°26'1111.7
2014-Oct-29 09:33N 35°57' W 005°27'3 0.8
2014-Oct-29 06:06N 35°57' W 005°31'815.3
2014-Oct-29 05:33N 36°03' W 005°24'5 1.1
2014-Oct-29 00:31N 36°08' W 005°26'9 9.0
2014-Oct-28 23:34N 35°59' W 005°25'1 0.3
2014-Oct-28 19:32N 36°00' W 005°26'8 3.6
2014-Oct-28 17:24N 36°08' W 005°26'2 1.8
2014-Oct-28 16:33N 36°08' W 005°24'13 3.2
2014-Oct-28 12:33N 35°57' W 005°31'12 8.0
2014-Oct-28 11:05N 36°08' W 005°26'0 0.0
2014-Oct-28 10:32N 36°08' W 005°26'3 3.1
2014-Oct-28 09:33N 36°06' W 005°24'11 3.3
2014-Oct-28 06:15N 35°56' W 005°30'1217.8
2014-Oct-28 05:33N 36°08' W 005°24'2 0.8
2014-Oct-28 03:24N 36°08' W 005°26'0 0.0
2014-Oct-28 02:33N 36°08' W 005°26'0 0.0
2014-Oct-28 01:33N 36°08' W 005°26'0 0.0
2014-Oct-28 00:33N 36°08' W 005°26'5 4.9
2014-Oct-27 23:34N 36°04' W 005°24'9 2.6
2014-Oct-27 20:15N 35°56' W 005°30'1217.3
2014-Oct-27 19:33N 36°08' W 005°24'2 0.9
2014-Oct-27 17:28N 36°08' W 005°26'0 0.2
2014-Oct-27 16:34N 36°08' W 005°26'1010.4
2014-Oct-27 15:33N 35°58' W 005°28'3 1.0
2014-Oct-27 12:33N 36°01' W 005°26'7 7.3
2014-Oct-27 11:34N 36°08' W 005°26'0 0.0
2014-Oct-27 10:33N 36°08' W 005°26'4 4.3
2014-Oct-27 09:33N 36°04' W 005°24'10 3.0
2014-Oct-27 06:24N 35°56' W 005°30'1315.7
2014-Oct-27 05:33N 36°09' W 005°25'1 0.9
2014-Oct-27 04:11N 36°08' W 005°26'0 0.0
2014-Oct-27 03:17N 36°08' W 005°26'0 0.0
2014-Oct-27 02:23N 36°08' W 005°26'0 0.0
2014-Oct-27 01:29N 36°08' W 005°26'0 0.0
2014-Oct-27 00:29N 36°08' W 005°26'2 1.7
2014-Oct-26 23:29N 36°08' W 005°24'13 4.2
2014-Oct-26 20:27N 35°57' W 005°31'1314.7
2014-Oct-26 19:33N 36°09' W 005°26'1 1.2
2014-Oct-26 18:33N 36°08' W 005°26'0 0.0
2014-Oct-26 17:33N 36°08' W 005°26'2 2.1
2014-Oct-26 16:34N 36°07' W 005°24'15 5.0
2014-Oct-26 13:31N 35°53' W 005°31'1616.7
2014-Oct-26 12:34N 36°08' W 005°24'2 1.5
2014-Oct-26 11:33N 36°08' W 005°26'0 0.0
2014-Oct-26 10:33N 36°08' W 005°26'0 0.0
2014-Oct-26 09:33N 36°08' W 005°26'9 9.1
2014-Oct-26 08:33N 35°59' W 005°25'7 3.0
2014-Oct-26 06:18N 35°54' W 005°31'1216.3
2014-Oct-26 05:33N 36°04' W 005°24'4 4.1
2014-Oct-26 04:32N 36°08' W 005°26'0 0.0
2014-Oct-26 03:20N 36°08' W 005°26'0 0.0
2014-Oct-26 02:32N 36°08' W 005°26'0 0.0
2014-Oct-26 01:32N 36°08' W 005°26'1 0.5
2014-Oct-26 00:33N 36°08' W 005°26'1111.0
2014-Oct-25 23:33N 35°58' W 005°28'2 0.4
2014-Oct-25 19:33N 35°57' W 005°30'1110.3
2014-Oct-25 18:30N 36°08' W 005°26'0 0.0
2014-Oct-25 17:30N 36°08' W 005°26'0 0.0
2014-Oct-25 16:33N 36°08' W 005°26'8 8.0
2014-Oct-25 15:33N 36°00' W 005°25'2 0.5
2014-Oct-25 11:33N 35°60' W 005°27'8 8.1
2014-Oct-25 10:33N 36°08' W 005°26'0 0.0
2014-Oct-25 09:33N 36°08' W 005°26'6 5.6
2014-Oct-25 08:34N 36°03' W 005°23'3 0.7
2014-Oct-25 04:33N 36°01' W 005°26'7 6.7
2014-Oct-25 03:33N 36°08' W 005°26'0 0.0
2014-Oct-25 02:33N 36°08' W 005°26'0 0.0
2014-Oct-25 01:33N 36°08' W 005°26'0 0.0
2014-Oct-25 00:33N 36°08' W 005°26'0 0.0
2014-Oct-24 23:34N 36°08' W 005°26'2 2.2
2014-Oct-24 22:33N 36°07' W 005°24'10 2.6
2014-Oct-24 18:33N 35°58' W 005°29'10 9.9
2014-Oct-24 17:31N 36°08' W 005°26'0 0.0
2014-Oct-24 16:25N 36°08' W 005°26'0 0.2
2014-Oct-24 15:33N 36°08' W 005°26'1111.0
2014-Oct-24 14:34N 35°57' W 005°28'2 0.6
2014-Oct-24 11:21N 35°56' W 005°30'1316.6
2014-Oct-24 10:33N 36°09' W 005°25'1 1.2
2014-Oct-24 09:33N 36°08' W 005°26'0 0.3
2014-Oct-24 08:33N 36°08' W 005°26'10 9.8
2014-Oct-24 07:33N 35°58' W 005°26'3 1.1
2014-Oct-24 04:33N 36°02' W 005°25'6 6.4
2014-Oct-24 03:33N 36°08' W 005°26'0 0.0
2014-Oct-24 02:33N 36°08' W 005°26'0 0.0
2014-Oct-24 01:33N 36°08' W 005°26'0 0.0
2014-Oct-24 00:33N 36°08' W 005°26'0 0.0
2014-Oct-23 23:33N 36°08' W 005°26'1 1.1
2014-Oct-23 22:33N 36°09' W 005°26'11 2.7
2014-Oct-23 18:34N 35°59' W 005°28'10 8.3
2014-Oct-23 17:25N 36°08' W 005°26'0 0.0
2014-Oct-23 16:31N 36°08' W 005°26'0 0.0
2014-Oct-23 15:28N 36°08' W 005°26'2 2.4
2014-Oct-23 14:34N 36°07' W 005°24'12 3.6
2014-Oct-23 11:20N 35°56' W 005°30'1316.7
2014-Oct-23 10:33N 36°09' W 005°25'1 1.1
2014-Oct-23 09:33N 36°08' W 005°26'1 1.1
2014-Oct-23 08:32N 36°09' W 005°26'16 5.2
2014-Oct-23 05:24N 35°53' W 005°31'1113.2
2014-Oct-23 04:33N 36°03' W 005°24'5 4.7
2014-Oct-23 03:26N 36°08' W 005°26'0 0.0
2014-Oct-23 02:23N 36°08' W 005°26'0 0.0
2014-Oct-23 01:28N 36°08' W 005°26'0 0.1
2014-Oct-23 00:33N 36°08' W 005°26'9 9.5
2014-Oct-22 23:34N 35°59' W 005°26'5 1.5
2014-Oct-22 20:26N 35°56' W 005°30'1315.1
2014-Oct-22 19:33N 36°09' W 005°25'1 1.1
2014-Oct-22 18:33N 36°08' W 005°26'0 0.0
2014-Oct-22 17:33N 36°08' W 005°26'2 1.8
2014-Oct-22 16:33N 36°08' W 005°24'13 2.5
2014-Oct-22 11:27N 35°56' W 005°30'1314.8
2014-Oct-22 10:33N 36°09' W 005°26'1 1.0
2014-Oct-22 09:33N 36°08' W 005°26'1 1.1
2014-Oct-22 08:34N 36°09' W 005°26'13 3.9
2014-Oct-22 05:10N 35°57' W 005°31'1016.1
2014-Oct-22 04:33N 36°05' W 005°24'4 3.9
2014-Oct-22 03:33N 36°08' W 005°26'0 0.0
2014-Oct-22 02:33N 36°08' W 005°26'0 0.0
2014-Oct-22 01:33N 36°08' W 005°26'1 1.4
2014-Oct-22 00:33N 36°09' W 005°25'0 0.1
2014-Oct-21 23:33N 36°09' W 005°25'8 8.5
2014-Oct-21 22:34N 36°01' W 005°24'6 2.1
2014-Oct-21 19:32N 35°57' W 005°30'1212.2
2014-Oct-21 18:34N 36°08' W 005°26'0 0.2
2014-Oct-21 17:34N 36°08' W 005°26'0 0.0
2014-Oct-21 16:33N 36°08' W 005°26'6 5.8
2014-Oct-21 15:33N 36°03' W 005°23'  
Track history (hours):
 
Tides and Currents Weather Stations Pressure Air Temp Water Temp Dewpoint Dewpoint Depression Visibility Wind Speed Wind Dir Waves Ship Positions

Borja

Last reported at 2014-Oct-31 15:33 UTC. Time now 2014-Oct-31 15:53 UTC.
Position N 36°03' W 005°24'.

Length 186 m; draft 5.8 m.

Type: Ship. MMSI: 247196400.

Date/timePositionNaut miles runAvg speedWind from/ knotsBaromVisibWave heightAir tempDewpointWater temp
2014-Oct-31 15:33N 36°03' W 005°24'1 0.1
2014-Oct-31 11:33N 36°03' W 005°24'5 5.0
2014-Oct-31 10:33N 36°08' W 005°26'0 0.0
2014-Oct-31 09:33N 36°08' W 005°26'8 8.3
2014-Oct-31 08:34N 35°60' W 005°25'5 1.6
2014-Oct-31 05:34N 35°57' W 005°30'1211.7
2014-Oct-31 04:33N 36°08' W 005°26'0 0.0
2014-Oct-31 03:24N 36°08' W 005°26'0 0.0
2014-Oct-31 01:24N 36°08' W 005°26'0 0.0
2014-Oct-31 00:30N 36°08' W 005°26'2 2.2
2014-Oct-30 23:33N 36°08' W 005°24'13 3.9
2014-Oct-30 20:06N 35°57' W 005°32'917.1
2014-Oct-30 19:33N 36°03' W 005°24'5 4.8
2014-Oct-30 18:32N 36°08' W 005°26'0 0.0
2014-Oct-30 17:26N 36°08' W 005°26'1 1.0
2014-Oct-30 16:33N 36°09' W 005°26'1313.2
2014-Oct-30 15:33N 35°56' W 005°29'0 0.1
2014-Oct-30 12:25N 35°56' W 005°29'1214.0
2014-Oct-30 11:33N 36°08' W 005°26'0 0.3
2014-Oct-30 10:33N 36°08' W 005°26'0 0.2
2014-Oct-30 09:29N 36°08' W 005°26'1011.0
2014-Oct-30 08:33N 35°58' W 005°28'3 0.9
2014-Oct-30 05:32N 36°00' W 005°26'8 4.0
2014-Oct-30 03:32N 36°08' W 005°26'0 0.0
2014-Oct-30 02:14N 36°08' W 005°26'0 0.0
2014-Oct-30 01:32N 36°08' W 005°26'0 0.2
2014-Oct-30 00:33N 36°08' W 005°26'3 2.9
2014-Oct-29 23:33N 36°06' W 005°23'12 3.4
2014-Oct-29 20:12N 35°56' W 005°30'1217.9
2014-Oct-29 19:33N 36°07' W 005°24'2 1.8
2014-Oct-29 18:25N 36°08' W 005°26'0 0.1
2014-Oct-29 17:30N 36°08' W 005°26'6 6.3
2014-Oct-29 16:33N 36°02' W 005°23'9 2.8
2014-Oct-29 13:32N 35°56' W 005°31'1212.4
2014-Oct-29 12:33N 36°08' W 005°26'0 0.1
2014-Oct-29 11:33N 36°08' W 005°26'0 0.2
2014-Oct-29 10:30N 36°08' W 005°26'1111.7
2014-Oct-29 09:33N 35°57' W 005°27'3 0.8
2014-Oct-29 06:06N 35°57' W 005°31'815.3
2014-Oct-29 05:33N 36°03' W 005°24'5 1.1
2014-Oct-29 00:31N 36°08' W 005°26'9 9.0
2014-Oct-28 23:34N 35°59' W 005°25'1 0.3
2014-Oct-28 19:32N 36°00' W 005°26'8 3.6
2014-Oct-28 17:24N 36°08' W 005°26'2 1.8
2014-Oct-28 16:33N 36°08' W 005°24'13 3.2
2014-Oct-28 12:33N 35°57' W 005°31'12 8.0
2014-Oct-28 11:05N 36°08' W 005°26'0 0.0
2014-Oct-28 10:32N 36°08' W 005°26'3 3.1
2014-Oct-28 09:33N 36°06' W 005°24'11 3.3
2014-Oct-28 06:15N 35°56' W 005°30'1217.8
2014-Oct-28 05:33N 36°08' W 005°24'2 0.8
2014-Oct-28 03:24N 36°08' W 005°26'0 0.0
2014-Oct-28 02:33N 36°08' W 005°26'0 0.0
2014-Oct-28 01:33N 36°08' W 005°26'0 0.0
2014-Oct-28 00:33N 36°08' W 005°26'5 4.9
2014-Oct-27 23:34N 36°04' W 005°24'9 2.6
2014-Oct-27 20:15N 35°56' W 005°30'1217.3
2014-Oct-27 19:33N 36°08' W 005°24'2 0.9
2014-Oct-27 17:28N 36°08' W 005°26'0 0.2
2014-Oct-27 16:34N 36°08' W 005°26'1010.4
2014-Oct-27 15:33N 35°58' W 005°28'3 1.0
2014-Oct-27 12:33N 36°01' W 005°26'7 7.3
2014-Oct-27 11:34N 36°08' W 005°26'0 0.0
2014-Oct-27 10:33N 36°08' W 005°26'4 4.3
2014-Oct-27 09:33N 36°04' W 005°24'10 3.0
2014-Oct-27 06:24N 35°56' W 005°30'1315.7
2014-Oct-27 05:33N 36°09' W 005°25'1 0.9
2014-Oct-27 04:11N 36°08' W 005°26'0 0.0
2014-Oct-27 03:17N 36°08' W 005°26'0 0.0
2014-Oct-27 02:23N 36°08' W 005°26'0 0.0
2014-Oct-27 01:29N 36°08' W 005°26'0 0.0
2014-Oct-27 00:29N 36°08' W 005°26'2 1.7
2014-Oct-26 23:29N 36°08' W 005°24'13 4.2
2014-Oct-26 20:27N 35°57' W 005°31'1314.7
2014-Oct-26 19:33N 36°09' W 005°26'1 1.2
2014-Oct-26 18:33N 36°08' W 005°26'0 0.0
2014-Oct-26 17:33N 36°08' W 005°26'2 2.1
2014-Oct-26 16:34N 36°07' W 005°24'15 5.0
2014-Oct-26 13:31N 35°53' W 005°31'1616.7
2014-Oct-26 12:34N 36°08' W 005°24'2 1.5
2014-Oct-26 11:33N 36°08' W 005°26'0 0.0
2014-Oct-26 10:33N 36°08' W 005°26'0 0.0
2014-Oct-26 09:33N 36°08' W 005°26'9 9.1
2014-Oct-26 08:33N 35°59' W 005°25'7 3.0
2014-Oct-26 06:18N 35°54' W 005°31'1216.3
2014-Oct-26 05:33N 36°04' W 005°24'4 4.1
2014-Oct-26 04:32N 36°08' W 005°26'0 0.0
2014-Oct-26 03:20N 36°08' W 005°26'0 0.0
2014-Oct-26 02:32N 36°08' W 005°26'0 0.0
2014-Oct-26 01:32N 36°08' W 005°26'1 0.5
2014-Oct-26 00:33N 36°08' W 005°26'1111.0
2014-Oct-25 23:33N 35°58' W 005°28'2 0.4
2014-Oct-25 19:33N 35°57' W 005°30'1110.3
2014-Oct-25 18:30N 36°08' W 005°26'0 0.0
2014-Oct-25 17:30N 36°08' W 005°26'0 0.0
2014-Oct-25 16:33N 36°08' W 005°26'8 8.0
2014-Oct-25 15:33N 36°00' W 005°25'2 0.5
2014-Oct-25 11:33N 35°60' W 005°27'8 8.1
2014-Oct-25 10:33N 36°08' W 005°26'0 0.0
2014-Oct-25 09:33N 36°08' W 005°26'6 5.6
2014-Oct-25 08:34N 36°03' W 005°23'3 0.7
2014-Oct-25 04:33N 36°01' W 005°26'7 6.7
2014-Oct-25 03:33N 36°08' W 005°26'0 0.0
2014-Oct-25 02:33N 36°08' W 005°26'0 0.0
2014-Oct-25 01:33N 36°08' W 005°26'0 0.0
2014-Oct-25 00:33N 36°08' W 005°26'0 0.0
2014-Oct-24 23:34N 36°08' W 005°26'2 2.2
2014-Oct-24 22:33N 36°07' W 005°24'10 2.6
2014-Oct-24 18:33N 35°58' W 005°29'10 9.9
2014-Oct-24 17:31N 36°08' W 005°26'0 0.0
2014-Oct-24 16:25N 36°08' W 005°26'0 0.2
2014-Oct-24 15:33N 36°08' W 005°26'1111.0
2014-Oct-24 14:34N 35°57' W 005°28'2 0.6
2014-Oct-24 11:21N 35°56' W 005°30'1316.6
2014-Oct-24 10:33N 36°09' W 005°25'1 1.2
2014-Oct-24 09:33N 36°08' W 005°26'0 0.3
2014-Oct-24 08:33N 36°08' W 005°26'10 9.8
2014-Oct-24 07:33N 35°58' W 005°26'3 1.1
2014-Oct-24 04:33N 36°02' W 005°25'6 6.4
2014-Oct-24 03:33N 36°08' W 005°26'0 0.0
2014-Oct-24 02:33N 36°08' W 005°26'0 0.0
2014-Oct-24 01:33N 36°08' W 005°26'0 0.0
2014-Oct-24 00:33N 36°08' W 005°26'0 0.0
2014-Oct-23 23:33N 36°08' W 005°26'1 1.1
2014-Oct-23 22:33N 36°09' W 005°26'11 2.7
2014-Oct-23 18:34N 35°59' W 005°28'10 8.3
2014-Oct-23 17:25N 36°08' W 005°26'0 0.0
2014-Oct-23 16:31N 36°08' W 005°26'0 0.0
2014-Oct-23 15:28N 36°08' W 005°26'2 2.4
2014-Oct-23 14:34N 36°07' W 005°24'12 3.6
2014-Oct-23 11:20N 35°56' W 005°30'1316.7
2014-Oct-23 10:33N 36°09' W 005°25'1 1.1
2014-Oct-23 09:33N 36°08' W 005°26'1 1.1
2014-Oct-23 08:32N 36°09' W 005°26'16 5.2
2014-Oct-23 05:24N 35°53' W 005°31'1113.2
2014-Oct-23 04:33N 36°03' W 005°24'5 4.7
2014-Oct-23 03:26N 36°08' W 005°26'0 0.0
2014-Oct-23 02:23N 36°08' W 005°26'0 0.0
2014-Oct-23 01:28N 36°08' W 005°26'0 0.1
2014-Oct-23 00:33N 36°08' W 005°26'9 9.5
2014-Oct-22 23:34N 35°59' W 005°26'5 1.5
2014-Oct-22 20:26N 35°56' W 005°30'1315.1
2014-Oct-22 19:33N 36°09' W 005°25'1 1.1
2014-Oct-22 18:33N 36°08' W 005°26'0 0.0
2014-Oct-22 17:33N 36°08' W 005°26'2 1.8
2014-Oct-22 16:33N 36°08' W 005°24'13 2.5
2014-Oct-22 11:27N 35°56' W 005°30'1314.8
2014-Oct-22 10:33N 36°09' W 005°26'1 1.0
2014-Oct-22 09:33N 36°08' W 005°26'1 1.1
2014-Oct-22 08:34N 36°09' W 005°26'13 3.9
2014-Oct-22 05:10N 35°57' W 005°31'1016.1
2014-Oct-22 04:33N 36°05' W 005°24'4 3.9
2014-Oct-22 03:33N 36°08' W 005°26'0 0.0
2014-Oct-22 02:33N 36°08' W 005°26'0 0.0
2014-Oct-22 01:33N 36°08' W 005°26'1 1.4
2014-Oct-22 00:33N 36°09' W 005°25'0 0.1
2014-Oct-21 23:33N 36°09' W 005°25'8 8.5
2014-Oct-21 22:34N 36°01' W 005°24'6 2.1
2014-Oct-21 19:32N 35°57' W 005°30'1212.2
2014-Oct-21 18:34N 36°08' W 005°26'0 0.2
2014-Oct-21 17:34N 36°08' W 005°26'0 0.0
2014-Oct-21 16:33N 36°08' W 005°26'6 5.8
2014-Oct-21 15:33N 36°03' W 005°23'  

Dump ship's entire track history